Timeline UpdatesTrip UpdatesNews PostsPvt Posts♥♥Travel TipsAdmin PostsConv PostsFollowed PostsChat RequestsBlog PostsPNR Posts

Disclaimer
Search
 
 
Fri Nov 28, 2014 17:44:32 ISTHomeTrainsΣChainsAtlasPNRForumGalleryNewsFAQTripsMembersLoginFeedback
No Recent News for this Train
Other Trains in the News **new
Latest...
One Sleeper and unreserved coach for Nandurbar from 59441 Mumbai Ahmedabad passenger is attached to this train at Surat.
Fri Feb 04, 2011 (12:38PM)
⇐ Return Journey: Train# 59076

59075/Surat - Bhusaval Passenger

Time-Table HAS CHANGED.
Sep 02 2014 (12:28AM)
Change Departure Station:
Change Arrival Station:
Post a Train Travel TipPost a Train Travel Tip **new
Post a Comment/Question/Picture/VideoPost a Comment/Question/Picture/Video
Pantry/Catering
✕ NO Pantry Car
✓ Catering Avbl
RSA - Rake Sharing
Rake/Coach Composition
Loco
BSL WAM4.
News    PNR    Forum    Time-Table    Availability    Fare Chart    Map    Arr/Dep History    Trips    Gallery    ΣChains    X/O    Timeline    
Travel Time: 11h 29m    41 halts    Distance: 319 km    Avg Speed: 27 km/hr
Type: Passenger
Zone: WR/Western
Departs @ 07:51 (Avg 15m late)
Platform# 1
SMTWTFS
Chalthan/CHM 
Arrives @ 19:20 (Avg 21m late)
Platform# 1
SMTWTFS
Bhusaval Junction/BSL 

41 halts. 43 intermediate Stations between Chalthan and Bhusaval Junction

Show ALL intermediate Stations  Show Old Time-Table

#TrkCodeStation NameX/OArrivesAvgDepartsAvgHaltPFDay#KmSpeedElevZoneAddress
1|--|STSurat (4)  -07:20+141-15.53019mWRSurat 395001, Gujarat
2/==/UDNUdhna Junction (3)O  07:28+1307:30+172m31-11.53516mWRUdhna 394210, Gujarat
3%==%NOLNiyol (1)  07:41-07:43-2m11-5.05018mWRSurat, Gujarat
4%==%CHMChalthan (1)»  07:49+1407:51+152m110.04423mWRKadodra, Gujarat
5%==%BGMRBagumra (1)  07:58 07:57-07:59-1 2m--14.45122mWRNational Highway 6, Gujarat
6%==%GGARGangadhara (1)X  08:05+1908:07+272m119.52727mWRKareli, Gujarat
7%==%BIYBardoli (2)X  08:21+2208:23+282m--115.75135mWRNear Bardoli Sugar Factory Bardoli, Gujarat
8%==%TBVTimbarva (1)  08:31+3208:33+322m1122.54135mWRTimberva, Gujarat
9%==%MGRLMangrolla (1)O  08:37-08:39-2m1125.24636mWRPipariya, Gujarat
10%==%MIDMadhi (1)  08:46+3208:48+342m1130.53645mWRMadhi, Gujarat
11%==%KRAIKaher (1)O  08:57-08:59-2m1135.94655mWRKaher, Gujarat
12%==%LTVLotarva (1)  09:03+3509:05+342m1139.02657mWRSankr Main Rd, Gujarat
13%==/VYAVyara (2)  09:20+3109:22+342m2145.54990mWRVyara, Gujarat
14/==/KKRDKikakui Road (1)  09:36+3309:38+322m1157.038114mWRGujarat 394650 ?, Gujarat
15/==/DSDDosvada (1)  09:42-09:44-2m1159.646121mWRNational Highway 6, Gujarat
16/==/USDUkai Songadh (2)XO  09:50+3209:52+322m1164.262139mWRSongadh, Gujarat
17/==/LKKDLakkad Kot (1)  09:59+3610:01+462m1171.437122mWRGujarat 394375 ?, Gujarat
18/==/BBAIBhadbhunja (1)O  10:09+4710:11+462m1176.333126mWRGujarat 394375 ?, Gujarat
19/==/NWUNavapur (2)  10:31+4010:33+402m--187.457124mWRNavapur, Gujarat
20/==/KFFKolda (1)O  10:44+3910:46+372m1197.848160mWRGangapur, Maharashtra
21%==/CPDChinchpada (1)O  10:54+4110:56+502m11104.159178mWRGangapur, Maharashtra
22%==%KHTGKhatgaon (1)O  11:06+5311:08+1:072m11113.928178mWRState Highway 5, Maharashtra
23%==%KBHKhandbara (1)  11:27+1:0011:29+1:142m11122.716198mWRKhandbara, Maharashtra
24%==%DWDDhekwad (1)  12:20+4412:22+442m11136.324209mWRState Highway 5, Maharashtra
25/-=%NDBNandurbar (3)XO  12:45+3714:10 14:20+3285 95m--1145.334203mWRNandurbar, Maharashtra
26/-=%CUEChoupale (1)  14:19 14:29+2914:21 14:31+352m11150.552208mWRNehru Nagar, Maharashtra
27/--/TISITisi (1)  14:30 14:40+3414:32 14:42+372m11158.257185mWRState Highway 7, Maharashtra
28/--/RNLRanala (1)X  14:45 14:52+3814:47 14:54+482m11167.7120164mWRState Highway 6, Maharashtra
29/-=%DDEDondaicha (2)  15:00+4515:02+452m11179.738163mWRDondaicha, Maharashtra
30%==%VKHVikhran (1)  15:15+5015:17+502m11187.941176mWRMSH1, Maharashtra
31%==%SNSLSonshelu (1)  15:24-15:26-2m11192.732185mWRMSH1, Maharashtra
32%==%SNKSindkheda (1)  15:38+4315:40+432m11199.150178mWRState Highway 11, Maharashtra
33%==%HOLHol (1)X  15:50+4415:52+432m11207.425185mWRState Highway 6, Maharashtra
34%==%NDNNardana (1)  16:04+4016:06+402m11212.451184mWRNardana, Maharashtra
35%==%BEWBetavad (1)  16:14-16:16-2m11219.156178mWRState Highway 6, Maharashtra
36%==%PDPPadse  16:22+3816:24+382m--1224.736181mWRDhule, Maharashtra
37%==%BRTKBhortexX  16:37+3416:39+402m--1232.615180mWRVadhoda, Maharashtra
38/==%ANAmalner (2)X  17:12+1217:15+123m11240.762188mWRAmalner, Maharashtra
39/==/TKHETakarkhede (1)  17:26+1917:28+182m11252.144203mWRState Highway 6, Maharashtra
40/==/BHNEBhone (2)X  17:36-17:38-2m--1258.051196mWRState Highway 185, Maharashtra
41%==/DXGDharangaon (2)  17:47+2017:49+192m--1265.648217mWRDharangaon, Maharashtra
42%==%CHLKChavalkhede  17:58+2118:00+202m--1272.749196mWRState Highway 185, Maharashtra
43%==%PLDPaldhi (2)  18:14+1818:16+252m--1284.225208mWRPaldhi, Maharashtra
44%==%JLJalgaon Junction (4)XO  18:43+2518:45+252m41295.346213mCRJalgaon 425001, Maharashtra
45/==/BDIBhadli (2)  19:00+2119:02+222m--1306.842211mCRBhadli, Maharashtra
46/==/BSLBhusaval Junction (8)•  19:20+21-11319.4-208mCRBhusaval 425201, Maharashtra
Scroll to Top
Scroll to Bottom